sensor_id;sensor_type;location;lat;lon;timestamp;temperature;humidity
41058;DHT22;27499;48.884;2.258;2022-10-22T00:01:26;17.00;99.90
41058;DHT22;27499;48.884;2.258;2022-10-22T00:03:54;17.00;99.90
41058;DHT22;27499;48.884;2.258;2022-10-22T00:06:21;17.00;99.90
41058;DHT22;27499;48.884;2.258;2022-10-22T00:08:47;17.00;99.90
41058;DHT22;27499;48.884;2.258;2022-10-22T00:11:16;17.00;99.90
41058;DHT22;27499;48.884;2.258;2022-10-22T00:13:44;17.00;99.90
41058;DHT22;27499;48.884;2.258;2022-10-22T00:16:30;17.00;99.90
41058;DHT22;27499;48.884;2.258;2022-10-22T00:18:57;16.90;99.90
41058;DHT22;27499;48.884;2.258;2022-10-22T00:21:24;16.90;99.90
41058;DHT22;27499;48.884;2.258;2022-10-22T00:23:55;16.90;99.90
41058;DHT22;27499;48.884;2.258;2022-10-22T00:26:22;16.90;99.90
41058;DHT22;27499;48.884;2.258;2022-10-22T00:28:49;16.90;99.90
41058;DHT22;27499;48.884;2.258;2022-10-22T00:31:16;16.90;99.90
41058;DHT22;27499;48.884;2.258;2022-10-22T00:33:48;16.90;99.90
41058;DHT22;27499;48.884;2.258;2022-10-22T00:36:15;16.90;99.90
41058;DHT22;27499;48.884;2.258;2022-10-22T00:38:42;16.90;99.90
41058;DHT22;27499;48.884;2.258;2022-10-22T00:41:09;16.90;99.90
41058;DHT22;27499;48.884;2.258;2022-10-22T00:43:58;16.90;99.90
41058;DHT22;27499;48.884;2.258;2022-10-22T00:46:25;16.90;99.90
41058;DHT22;27499;48.884;2.258;2022-10-22T00:48:54;16.90;99.90
41058;DHT22;27499;48.884;2.258;2022-10-22T00:51:26;16.90;99.90
41058;DHT22;27499;48.884;2.258;2022-10-22T00:53:56;16.90;99.90
41058;DHT22;27499;48.884;2.258;2022-10-22T00:56:25;16.90;99.90
41058;DHT22;27499;48.884;2.258;2022-10-22T00:58:55;16.90;99.90
41058;DHT22;27499;48.884;2.258;2022-10-22T01:01:28;16.90;99.90
41058;DHT22;27499;48.884;2.258;2022-10-22T01:03:55;16.90;99.90
41058;DHT22;27499;48.884;2.258;2022-10-22T01:06:23;16.90;99.90
41058;DHT22;27499;48.884;2.258;2022-10-22T01:22:45;17.00;99.90
41058;DHT22;27499;48.884;2.258;2022-10-22T01:25:28;17.00;99.90
41058;DHT22;27499;48.884;2.258;2022-10-22T01:30:39;17.00;99.90
41058;DHT22;27499;48.884;2.258;2022-10-22T01:33:09;17.00;99.90
41058;DHT22;27499;48.884;2.258;2022-10-22T01:35:41;17.00;99.90
41058;DHT22;27499;48.884;2.258;2022-10-22T01:38:12;17.00;99.90
41058;DHT22;27499;48.884;2.258;2022-10-22T01:40:40;17.00;99.90
41058;DHT22;27499;48.884;2.258;2022-10-22T01:43:09;17.00;99.90
41058;DHT22;27499;48.884;2.258;2022-10-22T01:45:43;17.00;99.90
41058;DHT22;27499;48.884;2.258;2022-10-22T01:56:59;17.00;99.90
41058;DHT22;27499;48.884;2.258;2022-10-22T02:05:39;17.00;99.90
41058;DHT22;27499;48.884;2.258;2022-10-22T02:08:11;17.00;99.90
41058;DHT22;27499;48.884;2.258;2022-10-22T02:10:42;17.00;99.90
41058;DHT22;27499;48.884;2.258;2022-10-22T02:13:14;17.00;99.90
41058;DHT22;27499;48.884;2.258;2022-10-22T02:15:43;17.00;99.90
41058;DHT22;27499;48.884;2.258;2022-10-22T02:18:11;17.10;99.90
41058;DHT22;27499;48.884;2.258;2022-10-22T02:20:40;17.00;99.90
41058;DHT22;27499;48.884;2.258;2022-10-22T02:23:09;17.10;99.90
41058;DHT22;27499;48.884;2.258;2022-10-22T02:25:42;17.10;99.90
41058;DHT22;27499;48.884;2.258;2022-10-22T02:28:24;17.00;99.90
41058;DHT22;27499;48.884;2.258;2022-10-22T02:30:56;17.00;99.90
41058;DHT22;27499;48.884;2.258;2022-10-22T02:33:30;17.00;99.90
41058;DHT22;27499;48.884;2.258;2022-10-22T02:36:01;17.00;99.90
41058;DHT22;27499;48.884;2.258;2022-10-22T02:38:29;17.00;99.90
41058;DHT22;27499;48.884;2.258;2022-10-22T02:40:58;17.00;99.90
41058;DHT22;27499;48.884;2.258;2022-10-22T02:43:24;17.00;99.90
41058;DHT22;27499;48.884;2.258;2022-10-22T02:45:51;17.00;99.90
41058;DHT22;27499;48.884;2.258;2022-10-22T02:48:18;17.00;99.90
41058;DHT22;27499;48.884;2.258;2022-10-22T02:50:46;17.00;99.90
41058;DHT22;27499;48.884;2.258;2022-10-22T02:53:13;17.00;99.90
41058;DHT22;27499;48.884;2.258;2022-10-22T02:55:40;17.00;99.90
41058;DHT22;27499;48.884;2.258;2022-10-22T02:58:06;17.00;99.90
41058;DHT22;27499;48.884;2.258;2022-10-22T03:00:33;17.00;99.90
41058;DHT22;27499;48.884;2.258;2022-10-22T03:03:00;17.00;99.90
41058;DHT22;27499;48.884;2.258;2022-10-22T03:05:27;16.90;99.90
41058;DHT22;27499;48.884;2.258;2022-10-22T03:07:54;17.00;99.90
41058;DHT22;27499;48.884;2.258;2022-10-22T03:10:21;17.00;99.90
41058;DHT22;27499;48.884;2.258;2022-10-22T03:12:47;17.00;99.90
41058;DHT22;27499;48.884;2.258;2022-10-22T03:15:14;17.00;99.90
41058;DHT22;27499;48.884;2.258;2022-10-22T03:17:41;16.90;99.90
41058;DHT22;27499;48.884;2.258;2022-10-22T03:20:09;16.90;99.90
41058;DHT22;27499;48.884;2.258;2022-10-22T03:22:38;16.90;99.90
41058;DHT22;27499;48.884;2.258;2022-10-22T03:25:09;16.90;99.90
41058;DHT22;27499;48.884;2.258;2022-10-22T03:27:38;16.90;99.90
41058;DHT22;27499;48.884;2.258;2022-10-22T03:30:07;16.90;99.90
41058;DHT22;27499;48.884;2.258;2022-10-22T03:32:34;16.90;99.90
41058;DHT22;27499;48.884;2.258;2022-10-22T03:35:01;16.90;99.90
41058;DHT22;27499;48.884;2.258;2022-10-22T03:37:28;16.90;99.90
41058;DHT22;27499;48.884;2.258;2022-10-22T03:39:55;16.90;99.90
41058;DHT22;27499;48.884;2.258;2022-10-22T03:42:23;16.90;99.90
41058;DHT22;27499;48.884;2.258;2022-10-22T03:44:50;16.80;99.90
41058;DHT22;27499;48.884;2.258;2022-10-22T03:47:17;16.90;99.90
41058;DHT22;27499;48.884;2.258;2022-10-22T03:49:44;16.90;99.90
41058;DHT22;27499;48.884;2.258;2022-10-22T03:52:13;16.90;99.90
41058;DHT22;27499;48.884;2.258;2022-10-22T03:54:40;16.90;99.90
41058;DHT22;27499;48.884;2.258;2022-10-22T03:57:08;16.90;99.90
41058;DHT22;27499;48.884;2.258;2022-10-22T03:59:43;16.80;99.90
41058;DHT22;27499;48.884;2.258;2022-10-22T04:02:11;16.80;99.90
41058;DHT22;27499;48.884;2.258;2022-10-22T04:04:39;16.80;99.90
41058;DHT22;27499;48.884;2.258;2022-10-22T04:07:06;16.80;99.90
41058;DHT22;27499;48.884;2.258;2022-10-22T04:09:34;16.80;99.90
41058;DHT22;27499;48.884;2.258;2022-10-22T04:12:01;16.80;99.90
41058;DHT22;27499;48.884;2.258;2022-10-22T04:14:28;16.80;99.90
41058;DHT22;27499;48.884;2.258;2022-10-22T04:16:54;16.80;99.90
41058;DHT22;27499;48.884;2.258;2022-10-22T04:19:21;16.80;99.90
41058;DHT22;27499;48.884;2.258;2022-10-22T04:21:48;16.80;99.90
41058;DHT22;27499;48.884;2.258;2022-10-22T04:24:15;16.80;99.90
41058;DHT22;27499;48.884;2.258;2022-10-22T04:26:42;16.80;99.90
41058;DHT22;27499;48.884;2.258;2022-10-22T04:29:10;16.80;99.90
41058;DHT22;27499;48.884;2.258;2022-10-22T04:31:41;16.80;99.90
41058;DHT22;27499;48.884;2.258;2022-10-22T04:34:08;16.80;99.90
41058;DHT22;27499;48.884;2.258;2022-10-22T04:36:35;16.80;99.90
41058;DHT22;27499;48.884;2.258;2022-10-22T04:39:04;16.80;99.90
41058;DHT22;27499;48.884;2.258;2022-10-22T04:41:33;16.80;99.90
41058;DHT22;27499;48.884;2.258;2022-10-22T04:44:01;16.80;99.90
41058;DHT22;27499;48.884;2.258;2022-10-22T04:46:32;16.80;99.90
41058;DHT22;27499;48.884;2.258;2022-10-22T04:48:59;16.80;99.90
41058;DHT22;27499;48.884;2.258;2022-10-22T04:51:26;16.80;99.90
41058;DHT22;27499;48.884;2.258;2022-10-22T04:53:53;16.80;99.90
41058;DHT22;27499;48.884;2.258;2022-10-22T04:56:22;16.80;99.90
41058;DHT22;27499;48.884;2.258;2022-10-22T04:58:56;16.80;99.90
41058;DHT22;27499;48.884;2.258;2022-10-22T05:01:26;16.80;99.90
41058;DHT22;27499;48.884;2.258;2022-10-22T05:03:55;16.80;99.90
41058;DHT22;27499;48.884;2.258;2022-10-22T05:06:23;16.80;99.90
41058;DHT22;27499;48.884;2.258;2022-10-22T05:08:56;16.80;99.90
41058;DHT22;27499;48.884;2.258;2022-10-22T05:11:25;16.80;99.90
41058;DHT22;27499;48.884;2.258;2022-10-22T05:13:57;16.80;99.90
41058;DHT22;27499;48.884;2.258;2022-10-22T05:16:26;16.80;99.90
41058;DHT22;27499;48.884;2.258;2022-10-22T05:18:53;16.80;99.90
41058;DHT22;27499;48.884;2.258;2022-10-22T05:21:21;16.80;99.90
41058;DHT22;27499;48.884;2.258;2022-10-22T05:23:49;16.80;99.90
41058;DHT22;27499;48.884;2.258;2022-10-22T05:26:18;16.80;99.90
41058;DHT22;27499;48.884;2.258;2022-10-22T05:28:47;16.80;99.90
41058;DHT22;27499;48.884;2.258;2022-10-22T05:31:15;16.80;99.90
41058;DHT22;27499;48.884;2.258;2022-10-22T05:33:43;16.80;99.90
41058;DHT22;27499;48.884;2.258;2022-10-22T05:36:13;16.80;99.90
41058;DHT22;27499;48.884;2.258;2022-10-22T05:38:40;16.80;99.90
41058;DHT22;27499;48.884;2.258;2022-10-22T05:41:13;16.80;99.90
41058;DHT22;27499;48.884;2.258;2022-10-22T05:43:40;16.80;99.90
41058;DHT22;27499;48.884;2.258;2022-10-22T05:46:15;16.80;99.90
41058;DHT22;27499;48.884;2.258;2022-10-22T05:48:53;16.80;99.90
41058;DHT22;27499;48.884;2.258;2022-10-22T05:51:20;16.80;99.90
41058;DHT22;27499;48.884;2.258;2022-10-22T05:54:01;16.80;99.90
41058;DHT22;27499;48.884;2.258;2022-10-22T05:56:29;16.80;99.90
41058;DHT22;27499;48.884;2.258;2022-10-22T05:58:57;16.80;99.90
41058;DHT22;27499;48.884;2.258;2022-10-22T06:01:27;16.80;99.90
41058;DHT22;27499;48.884;2.258;2022-10-22T06:03:59;16.80;99.90
41058;DHT22;27499;48.884;2.258;2022-10-22T06:06:40;16.80;99.90
41058;DHT22;27499;48.884;2.258;2022-10-22T06:09:27;16.80;99.90
41058;DHT22;27499;48.884;2.258;2022-10-22T06:11:55;16.80;99.90
41058;DHT22;27499;48.884;2.258;2022-10-22T06:14:23;16.80;99.90
41058;DHT22;27499;48.884;2.258;2022-10-22T06:16:50;16.90;99.90
41058;DHT22;27499;48.884;2.258;2022-10-22T06:19:19;16.90;99.90
41058;DHT22;27499;48.884;2.258;2022-10-22T06:21:47;16.80;99.90
41058;DHT22;27499;48.884;2.258;2022-10-22T06:24:14;16.80;99.90
41058;DHT22;27499;48.884;2.258;2022-10-22T06:26:41;16.80;99.90
41058;DHT22;27499;48.884;2.258;2022-10-22T06:29:08;16.90;99.90
41058;DHT22;27499;48.884;2.258;2022-10-22T06:31:35;16.90;99.90
41058;DHT22;27499;48.884;2.258;2022-10-22T06:34:07;16.90;99.90
41058;DHT22;27499;48.884;2.258;2022-10-22T06:36:36;16.80;99.90
41058;DHT22;27499;48.884;2.258;2022-10-22T06:39:04;16.80;99.90
41058;DHT22;27499;48.884;2.258;2022-10-22T06:41:31;16.80;99.90
41058;DHT22;27499;48.884;2.258;2022-10-22T06:43:58;16.80;99.90
41058;DHT22;27499;48.884;2.258;2022-10-22T06:46:25;16.80;99.90
41058;DHT22;27499;48.884;2.258;2022-10-22T06:48:59;16.80;99.90
41058;DHT22;27499;48.884;2.258;2022-10-22T06:51:26;16.80;99.90
41058;DHT22;27499;48.884;2.258;2022-10-22T06:53:55;16.80;99.90
41058;DHT22;27499;48.884;2.258;2022-10-22T06:56:25;16.80;99.90
41058;DHT22;27499;48.884;2.258;2022-10-22T06:58:54;16.80;99.90
41058;DHT22;27499;48.884;2.258;2022-10-22T07:01:23;16.80;99.90
41058;DHT22;27499;48.884;2.258;2022-10-22T07:03:51;16.80;99.90
41058;DHT22;27499;48.884;2.258;2022-10-22T07:06:18;16.80;99.90
41058;DHT22;27499;48.884;2.258;2022-10-22T07:08:45;16.70;99.90
41058;DHT22;27499;48.884;2.258;2022-10-22T07:11:13;16.70;99.90
41058;DHT22;27499;48.884;2.258;2022-10-22T07:13:41;16.70;99.90
41058;DHT22;27499;48.884;2.258;2022-10-22T07:16:08;16.70;99.90
41058;DHT22;27499;48.884;2.258;2022-10-22T07:18:37;16.80;99.90
41058;DHT22;27499;48.884;2.258;2022-10-22T07:21:05;16.80;99.90
41058;DHT22;27499;48.884;2.258;2022-10-22T07:23:32;16.80;99.90
41058;DHT22;27499;48.884;2.258;2022-10-22T07:25:59;16.90;99.90
41058;DHT22;27499;48.884;2.258;2022-10-22T07:28:29;16.90;99.90
41058;DHT22;27499;48.884;2.258;2022-10-22T07:30:56;16.90;99.90
41058;DHT22;27499;48.884;2.258;2022-10-22T07:33:24;16.90;99.90
41058;DHT22;27499;48.884;2.258;2022-10-22T07:35:55;16.90;99.90
41058;DHT22;27499;48.884;2.258;2022-10-22T07:38:22;16.90;99.90
41058;DHT22;27499;48.884;2.258;2022-10-22T07:40:49;16.90;99.90
41058;DHT22;27499;48.884;2.258;2022-10-22T07:43:16;17.00;99.90
41058;DHT22;27499;48.884;2.258;2022-10-22T07:45:43;17.00;99.90
41058;DHT22;27499;48.884;2.258;2022-10-22T07:48:11;16.90;99.90
41058;DHT22;27499;48.884;2.258;2022-10-22T07:50:37;16.90;99.90
41058;DHT22;27499;48.884;2.258;2022-10-22T07:53:04;16.90;99.90
41058;DHT22;27499;48.884;2.258;2022-10-22T07:55:32;16.90;99.90
41058;DHT22;27499;48.884;2.258;2022-10-22T07:57:59;16.90;99.90
41058;DHT22;27499;48.884;2.258;2022-10-22T08:00:26;16.90;99.90
41058;DHT22;27499;48.884;2.258;2022-10-22T08:02:53;17.00;99.90
41058;DHT22;27499;48.884;2.258;2022-10-22T08:05:20;17.00;99.90
41058;DHT22;27499;48.884;2.258;2022-10-22T08:07:47;17.00;99.90
41058;DHT22;27499;48.884;2.258;2022-10-22T08:10:14;17.00;99.90
41058;DHT22;27499;48.884;2.258;2022-10-22T08:12:41;17.10;99.90
41058;DHT22;27499;48.884;2.258;2022-10-22T08:15:08;17.10;99.90
41058;DHT22;27499;48.884;2.258;2022-10-22T08:17:35;17.10;99.90
41058;DHT22;27499;48.884;2.258;2022-10-22T08:20:03;17.20;99.90
41058;DHT22;27499;48.884;2.258;2022-10-22T08:22:30;17.30;99.90
41058;DHT22;27499;48.884;2.258;2022-10-22T08:24:57;17.30;99.90
41058;DHT22;27499;48.884;2.258;2022-10-22T08:27:24;17.30;99.90
41058;DHT22;27499;48.884;2.258;2022-10-22T08:29:51;17.40;99.90
41058;DHT22;27499;48.884;2.258;2022-10-22T08:32:21;17.40;99.90
41058;DHT22;27499;48.884;2.258;2022-10-22T08:34:48;17.40;99.90
41058;DHT22;27499;48.884;2.258;2022-10-22T08:37:15;17.40;99.90
41058;DHT22;27499;48.884;2.258;2022-10-22T08:39:43;17.50;99.90
41058;DHT22;27499;48.884;2.258;2022-10-22T08:45:12;17.50;99.90
41058;DHT22;27499;48.884;2.258;2022-10-22T08:50:17;17.60;99.90
41058;DHT22;27499;48.884;2.258;2022-10-22T08:52:48;17.60;99.90
41058;DHT22;27499;48.884;2.258;2022-10-22T08:55:23;17.60;99.90
41058;DHT22;27499;48.884;2.258;2022-10-22T08:58:16;17.70;99.90
41058;DHT22;27499;48.884;2.258;2022-10-22T09:01:01;17.70;99.90
41058;DHT22;27499;48.884;2.258;2022-10-22T09:03:50;17.70;99.90
41058;DHT22;27499;48.884;2.258;2022-10-22T09:06:19;17.70;99.90
41058;DHT22;27499;48.884;2.258;2022-10-22T09:08:47;17.80;99.90
41058;DHT22;27499;48.884;2.258;2022-10-22T09:11:19;17.80;99.90
41058;DHT22;27499;48.884;2.258;2022-10-22T09:13:48;17.80;99.90
41058;DHT22;27499;48.884;2.258;2022-10-22T09:22:00;18.00;99.90
41058;DHT22;27499;48.884;2.258;2022-10-22T09:27:16;18.10;99.90
41058;DHT22;27499;48.884;2.258;2022-10-22T09:29:45;18.10;99.90
41058;DHT22;27499;48.884;2.258;2022-10-22T09:32:15;18.10;99.90
41058;DHT22;27499;48.884;2.258;2022-10-22T09:34:45;18.10;99.90
41058;DHT22;27499;48.884;2.258;2022-10-22T09:37:17;18.20;99.90
41058;DHT22;27499;48.884;2.258;2022-10-22T09:39:47;18.20;99.90
41058;DHT22;27499;48.884;2.258;2022-10-22T09:42:18;18.20;99.90
41058;DHT22;27499;48.884;2.258;2022-10-22T09:44:58;18.20;99.90
41058;DHT22;27499;48.884;2.258;2022-10-22T09:47:45;18.30;99.90
41058;DHT22;27499;48.884;2.258;2022-10-22T09:50:54;18.30;99.90
41058;DHT22;27499;48.884;2.258;2022-10-22T09:53:28;18.30;99.90
41058;DHT22;27499;48.884;2.258;2022-10-22T09:56:13;18.40;99.90
41058;DHT22;27499;48.884;2.258;2022-10-22T09:58:44;18.30;99.90
41058;DHT22;27499;48.884;2.258;2022-10-22T10:01:31;18.40;99.90
41058;DHT22;27499;48.884;2.258;2022-10-22T10:04:09;18.40;99.90
41058;DHT22;27499;48.884;2.258;2022-10-22T10:06:38;18.40;99.90
41058;DHT22;27499;48.884;2.258;2022-10-22T10:09:16;18.40;99.90
41058;DHT22;27499;48.884;2.258;2022-10-22T10:11:58;18.40;99.90
41058;DHT22;27499;48.884;2.258;2022-10-22T10:14:47;18.40;99.90
41058;DHT22;27499;48.884;2.258;2022-10-22T10:17:40;18.40;99.90
41058;DHT22;27499;48.884;2.258;2022-10-22T10:20:20;18.40;99.90
41058;DHT22;27499;48.884;2.258;2022-10-22T10:23:19;18.40;99.90
41058;DHT22;27499;48.884;2.258;2022-10-22T10:26:18;18.50;99.90
41058;DHT22;27499;48.884;2.258;2022-10-22T10:34:28;18.50;99.90
41058;DHT22;27499;48.884;2.258;2022-10-22T10:37:12;18.50;99.90
41058;DHT22;27499;48.884;2.258;2022-10-22T10:53:13;18.60;99.90
41058;DHT22;27499;48.884;2.258;2022-10-22T10:56:08;18.60;99.90
41058;DHT22;27499;48.884;2.258;2022-10-22T11:01:55;18.70;99.90
41058;DHT22;27499;48.884;2.258;2022-10-22T11:07:17;18.70;99.90
41058;DHT22;27499;48.884;2.258;2022-10-22T11:10:02;18.70;99.90
41058;DHT22;27499;48.884;2.258;2022-10-22T11:12:34;18.70;99.90
41058;DHT22;27499;48.884;2.258;2022-10-22T11:15:35;18.70;99.90
41058;DHT22;27499;48.884;2.258;2022-10-22T11:18:23;18.80;99.90
41058;DHT22;27499;48.884;2.258;2022-10-22T11:24:26;18.90;99.90
41058;DHT22;27499;48.884;2.258;2022-10-22T11:26:57;18.90;99.90
41058;DHT22;27499;48.884;2.258;2022-10-22T11:29:31;18.90;99.90
41058;DHT22;27499;48.884;2.258;2022-10-22T11:32:01;18.90;99.90
41058;DHT22;27499;48.884;2.258;2022-10-22T11:34:46;19.00;99.90
41058;DHT22;27499;48.884;2.258;2022-10-22T11:37:14;19.00;99.90
41058;DHT22;27499;48.884;2.258;2022-10-22T11:39:50;19.00;99.90
41058;DHT22;27499;48.884;2.258;2022-10-22T11:42:20;19.00;99.90
41058;DHT22;27499;48.884;2.258;2022-10-22T11:47:26;19.00;99.90
41058;DHT22;27499;48.884;2.258;2022-10-22T11:50:09;19.00;99.90
41058;DHT22;27499;48.884;2.258;2022-10-22T11:52:59;19.00;99.90
41058;DHT22;27499;48.884;2.258;2022-10-22T11:58:31;19.00;99.90
41058;DHT22;27499;48.884;2.258;2022-10-22T12:08:31;19.10;99.90
41058;DHT22;27499;48.884;2.258;2022-10-22T12:11:05;19.20;99.90
41058;DHT22;27499;48.884;2.258;2022-10-22T12:19:30;19.30;99.90
41058;DHT22;27499;48.884;2.258;2022-10-22T12:24:44;19.20;99.90
41058;DHT22;27499;48.884;2.258;2022-10-22T12:27:22;19.30;99.90
41058;DHT22;27499;48.884;2.258;2022-10-22T12:29:57;19.20;99.90
41058;DHT22;27499;48.884;2.258;2022-10-22T12:32:38;19.20;99.90
41058;DHT22;27499;48.884;2.258;2022-10-22T12:35:18;19.20;99.90
41058;DHT22;27499;48.884;2.258;2022-10-22T12:37:54;19.30;99.90
41058;DHT22;27499;48.884;2.258;2022-10-22T12:40:27;19.30;99.90
41058;DHT22;27499;48.884;2.258;2022-10-22T12:43:06;19.30;99.90
41058;DHT22;27499;48.884;2.258;2022-10-22T12:45:56;19.30;99.90
41058;DHT22;27499;48.884;2.258;2022-10-22T12:48:28;19.30;99.90
41058;DHT22;27499;48.884;2.258;2022-10-22T12:51:00;19.40;99.90
41058;DHT22;27499;48.884;2.258;2022-10-22T12:53:32;19.40;99.90
41058;DHT22;27499;48.884;2.258;2022-10-22T12:56:05;19.40;99.90
41058;DHT22;27499;48.884;2.258;2022-10-22T12:59:00;19.40;99.90
41058;DHT22;27499;48.884;2.258;2022-10-22T13:01:33;19.50;99.90
41058;DHT22;27499;48.884;2.258;2022-10-22T13:06:33;19.50;99.90
41058;DHT22;27499;48.884;2.258;2022-10-22T13:09:13;19.50;99.90
41058;DHT22;27499;48.884;2.258;2022-10-22T13:12:02;19.50;99.90
41058;DHT22;27499;48.884;2.258;2022-10-22T13:14:35;19.50;99.90
41058;DHT22;27499;48.884;2.258;2022-10-22T13:17:14;19.60;99.90
41058;DHT22;27499;48.884;2.258;2022-10-22T13:27:46;19.60;99.90
41058;DHT22;27499;48.884;2.258;2022-10-22T13:30:32;19.60;99.90
41058;DHT22;27499;48.884;2.258;2022-10-22T13:33:23;19.60;99.90
41058;DHT22;27499;48.884;2.258;2022-10-22T13:35:55;19.60;99.90
41058;DHT22;27499;48.884;2.258;2022-10-22T13:38:24;19.60;99.90
41058;DHT22;27499;48.884;2.258;2022-10-22T13:40:51;19.60;99.90
41058;DHT22;27499;48.884;2.258;2022-10-22T13:43:18;19.60;99.90
41058;DHT22;27499;48.884;2.258;2022-10-22T13:45:47;19.60;99.90
41058;DHT22;27499;48.884;2.258;2022-10-22T13:48:18;19.60;99.90
41058;DHT22;27499;48.884;2.258;2022-10-22T13:50:48;19.60;99.90
41058;DHT22;27499;48.884;2.258;2022-10-22T13:53:24;19.60;99.90
41058;DHT22;27499;48.884;2.258;2022-10-22T13:55:51;19.60;99.90
41058;DHT22;27499;48.884;2.258;2022-10-22T13:58:20;19.60;99.90
41058;DHT22;27499;48.884;2.258;2022-10-22T14:00:55;19.60;99.90
41058;DHT22;27499;48.884;2.258;2022-10-22T14:03:29;19.70;99.90
41058;DHT22;27499;48.884;2.258;2022-10-22T14:05:57;19.70;99.90
41058;DHT22;27499;48.884;2.258;2022-10-22T14:08:25;19.70;99.90
41058;DHT22;27499;48.884;2.258;2022-10-22T14:10:53;19.70;99.90
41058;DHT22;27499;48.884;2.258;2022-10-22T14:13:20;19.60;99.90
41058;DHT22;27499;48.884;2.258;2022-10-22T14:15:49;19.60;99.90
41058;DHT22;27499;48.884;2.258;2022-10-22T14:18:22;19.60;99.90
41058;DHT22;27499;48.884;2.258;2022-10-22T14:20:54;19.60;99.90
41058;DHT22;27499;48.884;2.258;2022-10-22T14:23:24;19.50;99.90
41058;DHT22;27499;48.884;2.258;2022-10-22T14:25:52;19.50;99.90
41058;DHT22;27499;48.884;2.258;2022-10-22T14:28:19;19.50;99.90
41058;DHT22;27499;48.884;2.258;2022-10-22T14:30:46;19.50;99.90
41058;DHT22;27499;48.884;2.258;2022-10-22T14:33:16;19.50;99.90
41058;DHT22;27499;48.884;2.258;2022-10-22T14:35:44;19.60;99.90
41058;DHT22;27499;48.884;2.258;2022-10-22T14:38:11;19.60;99.90
41058;DHT22;27499;48.884;2.258;2022-10-22T14:40:38;19.60;99.90
41058;DHT22;27499;48.884;2.258;2022-10-22T14:43:27;19.60;99.90
41058;DHT22;27499;48.884;2.258;2022-10-22T14:45:54;19.70;99.90
41058;DHT22;27499;48.884;2.258;2022-10-22T14:48:21;19.70;99.90
41058;DHT22;27499;48.884;2.258;2022-10-22T14:50:48;19.70;99.90
41058;DHT22;27499;48.884;2.258;2022-10-22T14:53:15;19.70;99.90
41058;DHT22;27499;48.884;2.258;2022-10-22T14:55:43;19.70;99.90
41058;DHT22;27499;48.884;2.258;2022-10-22T14:58:12;19.70;99.90
41058;DHT22;27499;48.884;2.258;2022-10-22T15:00:41;19.70;99.90
41058;DHT22;27499;48.884;2.258;2022-10-22T15:03:09;19.70;99.90
41058;DHT22;27499;48.884;2.258;2022-10-22T15:05:39;19.70;99.90
41058;DHT22;27499;48.884;2.258;2022-10-22T15:08:11;19.80;99.90
41058;DHT22;27499;48.884;2.258;2022-10-22T15:10:38;19.80;99.90
41058;DHT22;27499;48.884;2.258;2022-10-22T15:13:05;19.80;99.90
41058;DHT22;27499;48.884;2.258;2022-10-22T15:15:32;19.80;99.90
41058;DHT22;27499;48.884;2.258;2022-10-22T15:18:05;19.80;99.90
41058;DHT22;27499;48.884;2.258;2022-10-22T15:20:32;19.80;99.90
41058;DHT22;27499;48.884;2.258;2022-10-22T15:22:59;19.80;99.90
41058;DHT22;27499;48.884;2.258;2022-10-22T15:25:26;19.80;99.90
41058;DHT22;27499;48.884;2.258;2022-10-22T15:27:53;19.80;99.90
41058;DHT22;27499;48.884;2.258;2022-10-22T15:30:30;19.70;99.90
41058;DHT22;27499;48.884;2.258;2022-10-22T15:32:57;19.70;99.90
41058;DHT22;27499;48.884;2.258;2022-10-22T15:35:26;19.80;99.90
41058;DHT22;27499;48.884;2.258;2022-10-22T15:37:54;19.70;99.90
41058;DHT22;27499;48.884;2.258;2022-10-22T15:40:21;19.70;99.90
41058;DHT22;27499;48.884;2.258;2022-10-22T15:42:47;19.60;99.90
41058;DHT22;27499;48.884;2.258;2022-10-22T15:45:14;19.60;99.90
41058;DHT22;27499;48.884;2.258;2022-10-22T15:47:46;19.60;99.90
41058;DHT22;27499;48.884;2.258;2022-10-22T15:50:14;19.70;99.90
41058;DHT22;27499;48.884;2.258;2022-10-22T15:52:41;19.70;99.90
41058;DHT22;27499;48.884;2.258;2022-10-22T15:55:08;19.70;99.90
41058;DHT22;27499;48.884;2.258;2022-10-22T15:57:36;19.70;99.90
41058;DHT22;27499;48.884;2.258;2022-10-22T16:00:05;19.70;99.90
41058;DHT22;27499;48.884;2.258;2022-10-22T16:02:32;19.70;99.90
41058;DHT22;27499;48.884;2.258;2022-10-22T16:04:59;19.70;99.90
41058;DHT22;27499;48.884;2.258;2022-10-22T16:07:26;19.70;99.90
41058;DHT22;27499;48.884;2.258;2022-10-22T16:09:56;19.60;99.90
41058;DHT22;27499;48.884;2.258;2022-10-22T16:12:24;19.60;99.90
41058;DHT22;27499;48.884;2.258;2022-10-22T16:14:51;19.60;99.90
41058;DHT22;27499;48.884;2.258;2022-10-22T16:17:18;19.60;99.90
41058;DHT22;27499;48.884;2.258;2022-10-22T16:19:46;19.60;99.90
41058;DHT22;27499;48.884;2.258;2022-10-22T16:22:13;19.50;99.90
41058;DHT22;27499;48.884;2.258;2022-10-22T16:24:41;19.50;99.90
41058;DHT22;27499;48.884;2.258;2022-10-22T16:27:08;19.50;99.90
41058;DHT22;27499;48.884;2.258;2022-10-22T16:29:36;19.50;99.90
41058;DHT22;27499;48.884;2.258;2022-10-22T16:32:04;19.40;99.90
41058;DHT22;27499;48.884;2.258;2022-10-22T16:34:31;19.40;99.90
41058;DHT22;27499;48.884;2.258;2022-10-22T16:36:58;19.40;99.90
41058;DHT22;27499;48.884;2.258;2022-10-22T16:39:25;19.30;99.90
41058;DHT22;27499;48.884;2.258;2022-10-22T16:41:52;19.30;99.90
41058;DHT22;27499;48.884;2.258;2022-10-22T16:44:18;19.30;99.90
41058;DHT22;27499;48.884;2.258;2022-10-22T16:46:45;19.30;99.90
41058;DHT22;27499;48.884;2.258;2022-10-22T16:49:12;19.30;99.90
41058;DHT22;27499;48.884;2.258;2022-10-22T16:51:39;19.30;99.90
41058;DHT22;27499;48.884;2.258;2022-10-22T16:54:06;19.20;99.90
41058;DHT22;27499;48.884;2.258;2022-10-22T16:56:38;19.10;99.90
41058;DHT22;27499;48.884;2.258;2022-10-22T16:59:05;19.10;99.90
41058;DHT22;27499;48.884;2.258;2022-10-22T17:01:32;19.00;99.90
41058;DHT22;27499;48.884;2.258;2022-10-22T17:04:06;19.00;99.90
41058;DHT22;27499;48.884;2.258;2022-10-22T17:06:32;19.00;99.90
41058;DHT22;27499;48.884;2.258;2022-10-22T17:08:59;18.90;99.90
41058;DHT22;27499;48.884;2.258;2022-10-22T17:11:26;18.90;99.90
41058;DHT22;27499;48.884;2.258;2022-10-22T17:14:00;18.90;99.90
41058;DHT22;27499;48.884;2.258;2022-10-22T17:16:28;18.90;99.90
41058;DHT22;27499;48.884;2.258;2022-10-22T17:18:55;18.90;99.90
41058;DHT22;27499;48.884;2.258;2022-10-22T17:21:23;18.90;99.90
41058;DHT22;27499;48.884;2.258;2022-10-22T17:23:57;19.00;99.90
41058;DHT22;27499;48.884;2.258;2022-10-22T17:26:24;19.00;99.90
41058;DHT22;27499;48.884;2.258;2022-10-22T17:28:53;19.00;99.90
41058;DHT22;27499;48.884;2.258;2022-10-22T17:31:25;19.00;99.90
41058;DHT22;27499;48.884;2.258;2022-10-22T17:33:54;18.90;99.90
41058;DHT22;27499;48.884;2.258;2022-10-22T17:36:22;18.90;99.90
41058;DHT22;27499;48.884;2.258;2022-10-22T17:38:52;18.80;99.90